sensor_id;sensor_type;location;lat;lon;timestamp;pressure;altitude;pressure_sealevel;temperature;humidity
75317;BME280;63913;51.492;10.368;2023-08-08T00:00:47;98213.22;;;12.18;79.53
75317;BME280;63913;51.492;10.368;2023-08-08T00:03:13;98220.06;;;12.14;79.67
75317;BME280;63913;51.492;10.368;2023-08-08T00:05:39;98203.66;;;12.06;79.46
75317;BME280;63913;51.492;10.368;2023-08-08T00:08:04;98212.22;;;12.05;79.88
75317;BME280;63913;51.492;10.368;2023-08-08T00:10:30;98206.28;;;12.12;80.16
75317;BME280;63913;51.492;10.368;2023-08-08T00:12:55;98212.28;;;12.11;79.91
75317;BME280;63913;51.492;10.368;2023-08-08T00:15:20;98212.25;;;12.10;79.93
75317;BME280;63913;51.492;10.368;2023-08-08T00:17:46;98208.84;;;12.08;80.71
75317;BME280;63913;51.492;10.368;2023-08-08T00:20:12;98212.25;;;12.07;80.44
75317;BME280;63913;51.492;10.368;2023-08-08T00:22:37;98208.81;;;12.09;80.36
75317;BME280;63913;51.492;10.368;2023-08-08T00:25:03;98202.75;;;12.04;80.72
75317;BME280;63913;51.492;10.368;2023-08-08T00:27:29;98199.34;;;12.08;80.78
75317;BME280;63913;51.492;10.368;2023-08-08T00:29:54;98197.66;;;12.10;81.33
75317;BME280;63913;51.492;10.368;2023-08-08T00:32:20;98198.59;;;12.14;81.05
75317;BME280;63913;51.492;10.368;2023-08-08T00:34:45;98195.13;;;12.12;81.08
75317;BME280;63913;51.492;10.368;2023-08-08T00:37:11;98189.94;;;12.10;80.97
75317;BME280;63913;51.492;10.368;2023-08-08T00:39:36;98188.28;;;12.14;81.02
75317;BME280;63913;51.492;10.368;2023-08-08T00:42:02;98189.16;;;12.17;81.01
75317;BME280;63913;51.492;10.368;2023-08-08T00:44:27;98187.47;;;12.19;81.56
75317;BME280;63913;51.492;10.368;2023-08-08T00:46:53;98174.56;;;12.19;80.83
75317;BME280;63913;51.492;10.368;2023-08-08T00:49:18;98179.72;;;12.18;80.98
75317;BME280;63913;51.492;10.368;2023-08-08T00:51:45;98178.88;;;12.19;81.05
75317;BME280;63913;51.492;10.368;2023-08-08T00:54:11;98178.00;;;12.18;81.17
75317;BME280;63913;51.492;10.368;2023-08-08T00:56:36;98179.69;;;12.15;80.75
75317;BME280;63913;51.492;10.368;2023-08-08T00:59:02;98177.13;;;12.16;81.56
75317;BME280;63913;51.492;10.368;2023-08-08T01:01:28;98177.06;;;12.12;81.30
75317;BME280;63913;51.492;10.368;2023-08-08T01:03:53;98166.72;;;12.06;82.16
75317;BME280;63913;51.492;10.368;2023-08-08T01:06:39;98171.88;;;12.06;81.44
75317;BME280;63913;51.492;10.368;2023-08-08T01:09:22;98163.22;;;11.99;81.69
75317;BME280;63913;51.492;10.368;2023-08-08T01:11:49;98165.75;;;11.98;81.82
75317;BME280;63913;51.492;10.368;2023-08-08T01:14:16;98160.56;;;11.95;81.95
75317;BME280;63913;51.492;10.368;2023-08-08T01:16:42;98164.09;;;12.04;81.98
75317;BME280;63913;51.492;10.368;2023-08-08T01:19:12;98157.19;;;11.99;81.79
75317;BME280;63913;51.492;10.368;2023-08-08T01:21:43;98158.91;;;12.01;81.70
75317;BME280;63913;51.492;10.368;2023-08-08T01:24:23;98155.50;;;12.02;81.50
75317;BME280;63913;51.492;10.368;2023-08-08T01:26:49;98148.59;;;12.01;81.94
75317;BME280;63913;51.492;10.368;2023-08-08T01:29:15;98137.44;;;12.02;82.00
75317;BME280;63913;51.492;10.368;2023-08-08T01:31:40;98137.44;;;11.99;82.21
75317;BME280;63913;51.492;10.368;2023-08-08T01:34:06;98139.13;;;12.00;81.95
75317;BME280;63913;51.492;10.368;2023-08-08T01:36:56;98134.81;;;11.96;82.41
75317;BME280;63913;51.492;10.368;2023-08-08T01:39:26;98133.06;;;11.94;82.53
75317;BME280;63913;51.492;10.368;2023-08-08T01:41:54;98134.81;;;11.96;81.83
75317;BME280;63913;51.492;10.368;2023-08-08T01:44:21;98141.63;;;11.90;82.55
75317;BME280;63913;51.492;10.368;2023-08-08T01:46:47;98140.81;;;11.95;82.11
75317;BME280;63913;51.492;10.368;2023-08-08T01:49:13;98134.84;;;11.98;82.59
75317;BME280;63913;51.492;10.368;2023-08-08T01:51:38;98134.88;;;12.02;81.24
75317;BME280;63913;51.492;10.368;2023-08-08T01:54:04;98135.75;;;12.04;81.29
75317;BME280;63913;51.492;10.368;2023-08-08T01:56:29;98129.78;;;12.05;81.29
75317;BME280;63913;51.492;10.368;2023-08-08T01:58:55;98129.88;;;12.16;80.48
75317;BME280;63913;51.492;10.368;2023-08-08T02:01:20;98128.09;;;12.10;81.11
75317;BME280;63913;51.492;10.368;2023-08-08T02:03:46;98127.25;;;12.13;80.33
75317;BME280;63913;51.492;10.368;2023-08-08T02:06:11;98129.88;;;12.16;80.62
75317;BME280;63913;51.492;10.368;2023-08-08T02:08:37;98121.28;;;12.15;80.25
75317;BME280;63913;51.492;10.368;2023-08-08T02:11:02;98116.13;;;12.14;80.13
75317;BME280;63913;51.492;10.368;2023-08-08T02:13:27;98117.78;;;12.10;80.21
75317;BME280;63913;51.492;10.368;2023-08-08T02:15:53;98118.63;;;12.09;80.38
75317;BME280;63913;51.492;10.368;2023-08-08T02:18:18;98113.50;;;12.11;80.32
75317;BME280;63913;51.492;10.368;2023-08-08T02:20:44;98112.66;;;12.12;80.04
75317;BME280;63913;51.492;10.368;2023-08-08T02:23:10;98105.81;;;12.15;80.52
75317;BME280;63913;51.492;10.368;2023-08-08T02:25:35;98105.81;;;12.14;79.59
75317;BME280;63913;51.492;10.368;2023-08-08T02:28:00;98103.19;;;12.12;79.91
75317;BME280;63913;51.492;10.368;2023-08-08T02:30:26;98101.50;;;12.14;79.81
75317;BME280;63913;51.492;10.368;2023-08-08T02:32:51;98101.50;;;12.14;79.27
75317;BME280;63913;51.492;10.368;2023-08-08T02:35:17;98111.91;;;12.23;79.28
75317;BME280;63913;51.492;10.368;2023-08-08T02:37:42;98107.59;;;12.21;79.32
75317;BME280;63913;51.492;10.368;2023-08-08T02:40:08;98104.19;;;12.23;78.89
75317;BME280;63913;51.492;10.368;2023-08-08T02:42:35;98117.06;;;12.25;78.85
75317;BME280;63913;51.492;10.368;2023-08-08T02:45:00;98110.22;;;12.27;78.83
75317;BME280;63913;51.492;10.368;2023-08-08T02:47:26;98109.28;;;12.19;78.82
75317;BME280;63913;51.492;10.368;2023-08-08T02:49:51;98107.56;;;12.19;78.31
75317;BME280;63913;51.492;10.368;2023-08-08T02:52:17;98106.72;;;12.20;78.80
75317;BME280;63913;51.492;10.368;2023-08-08T02:54:42;98111.06;;;12.26;79.00
75317;BME280;63913;51.492;10.368;2023-08-08T02:57:08;98109.38;;;12.28;78.30
75317;BME280;63913;51.492;10.368;2023-08-08T02:59:36;98107.66;;;12.29;78.35
75317;BME280;63913;51.492;10.368;2023-08-08T03:02:04;98098.22;;;12.31;78.27
75317;BME280;63913;51.492;10.368;2023-08-08T03:04:30;98101.66;;;12.33;78.80
75317;BME280;63913;51.492;10.368;2023-08-08T03:06:56;98101.72;;;12.37;78.36
75317;BME280;63913;51.492;10.368;2023-08-08T03:09:22;98100.03;;;12.39;78.21
75317;BME280;63913;51.492;10.368;2023-08-08T03:11:47;98106.91;;;12.42;77.92
75317;BME280;63913;51.492;10.368;2023-08-08T03:14:14;98094.03;;;12.40;78.61
75317;BME280;63913;51.492;10.368;2023-08-08T03:16:40;98092.31;;;12.44;78.26
75317;BME280;63913;51.492;10.368;2023-08-08T03:19:07;98087.97;;;12.41;78.06
75317;BME280;63913;51.492;10.368;2023-08-08T03:21:33;98088.84;;;12.39;78.26
75317;BME280;63913;51.492;10.368;2023-08-08T03:23:58;98090.56;;;12.38;78.95
75317;BME280;63913;51.492;10.368;2023-08-08T03:26:24;98102.56;;;12.36;79.18
75317;BME280;63913;51.492;10.368;2023-08-08T03:28:50;98099.16;;;12.39;79.67
75317;BME280;63913;51.492;10.368;2023-08-08T03:31:21;98094.84;;;12.41;79.93
75317;BME280;63913;51.492;10.368;2023-08-08T03:33:46;98094.88;;;12.39;79.71
75317;BME280;63913;51.492;10.368;2023-08-08T03:36:13;98091.41;;;12.39;80.08
75317;BME280;63913;51.492;10.368;2023-08-08T03:38:38;98086.25;;;12.37;79.76
75317;BME280;63913;51.492;10.368;2023-08-08T03:41:05;98087.06;;;12.32;80.81
75317;BME280;63913;51.492;10.368;2023-08-08T03:43:31;98087.06;;;12.30;81.22
75317;BME280;63913;51.492;10.368;2023-08-08T03:45:56;98079.28;;;12.29;81.27
75317;BME280;63913;51.492;10.368;2023-08-08T03:48:22;98080.19;;;12.34;80.79
75317;BME280;63913;51.492;10.368;2023-08-08T03:50:48;98080.97;;;12.23;81.39
75317;BME280;63913;51.492;10.368;2023-08-08T03:53:14;98077.53;;;12.26;82.24
75317;BME280;63913;51.492;10.368;2023-08-08T03:55:39;98084.47;;;12.30;82.61
75317;BME280;63913;51.492;10.368;2023-08-08T03:58:05;98089.63;;;12.33;82.23
75317;BME280;63913;51.492;10.368;2023-08-08T04:00:32;98096.50;;;12.30;82.79
75317;BME280;63913;51.492;10.368;2023-08-08T04:02:58;98090.47;;;12.28;82.70
75317;BME280;63913;51.492;10.368;2023-08-08T04:05:23;98082.69;;;12.24;82.97
75317;BME280;63913;51.492;10.368;2023-08-08T04:07:50;98081.75;;;12.15;83.31
75317;BME280;63913;51.492;10.368;2023-08-08T04:10:16;98083.47;;;12.17;84.15
75317;BME280;63913;51.492;10.368;2023-08-08T04:12:41;98084.38;;;12.21;83.36
75317;BME280;63913;51.492;10.368;2023-08-08T04:15:07;98084.38;;;12.21;83.66
75317;BME280;63913;51.492;10.368;2023-08-08T04:17:33;98080.91;;;12.17;83.07
75317;BME280;63913;51.492;10.368;2023-08-08T04:19:58;98080.88;;;12.13;83.37
75317;BME280;63913;51.492;10.368;2023-08-08T04:22:24;98082.59;;;12.14;83.70
75317;BME280;63913;51.492;10.368;2023-08-08T04:24:49;98081.72;;;12.12;83.67
75317;BME280;63913;51.492;10.368;2023-08-08T04:27:14;98079.09;;;12.09;83.19
75317;BME280;63913;51.492;10.368;2023-08-08T04:29:40;98082.50;;;12.03;84.04
75317;BME280;63913;51.492;10.368;2023-08-08T04:32:05;98076.53;;;12.09;84.00
75317;BME280;63913;51.492;10.368;2023-08-08T04:34:31;98091.22;;;12.14;83.70
75317;BME280;63913;51.492;10.368;2023-08-08T04:36:56;98081.75;;;12.13;83.74
75317;BME280;63913;51.492;10.368;2023-08-08T04:39:22;98073.94;;;12.09;83.45
75317;BME280;63913;51.492;10.368;2023-08-08T04:41:47;98086.06;;;12.17;82.81
75317;BME280;63913;51.492;10.368;2023-08-08T04:44:13;98092.06;;;12.16;82.95
75317;BME280;63913;51.492;10.368;2023-08-08T04:46:38;98087.78;;;12.15;82.15
75317;BME280;63913;51.492;10.368;2023-08-08T04:49:03;98088.63;;;12.17;82.11
75317;BME280;63913;51.492;10.368;2023-08-08T04:51:29;98086.91;;;12.15;82.62
75317;BME280;63913;51.492;10.368;2023-08-08T04:53:54;98086.94;;;12.18;83.01
75317;BME280;63913;51.492;10.368;2023-08-08T04:56:20;98074.97;;;12.23;82.28
75317;BME280;63913;51.492;10.368;2023-08-08T04:58:45;98062.09;;;12.28;82.72
75317;BME280;63913;51.492;10.368;2023-08-08T05:01:10;98069.00;;;12.29;82.89
75317;BME280;63913;51.492;10.368;2023-08-08T05:03:39;98057.84;;;12.31;82.02
75317;BME280;63913;51.492;10.368;2023-08-08T05:06:05;98058.69;;;12.33;82.79
75317;BME280;63913;51.492;10.368;2023-08-08T05:08:30;98063.94;;;12.39;82.45
75317;BME280;63913;51.492;10.368;2023-08-08T05:10:56;98055.31;;;12.37;82.13
75317;BME280;63913;51.492;10.368;2023-08-08T05:13:21;98049.31;;;12.40;81.67
75317;BME280;63913;51.492;10.368;2023-08-08T05:15:46;98056.16;;;12.36;82.08
75317;BME280;63913;51.492;10.368;2023-08-08T05:18:12;98060.41;;;12.30;82.52
75317;BME280;63913;51.492;10.368;2023-08-08T05:20:37;98056.91;;;12.24;82.33
75317;BME280;63913;51.492;10.368;2023-08-08T05:23:03;98061.28;;;12.30;82.93
75317;BME280;63913;51.492;10.368;2023-08-08T05:25:28;98059.56;;;12.31;82.76
75317;BME280;63913;51.492;10.368;2023-08-08T05:27:53;98054.44;;;12.35;82.94
75317;BME280;63913;51.492;10.368;2023-08-08T05:30:19;98046.72;;;12.41;82.35
75317;BME280;63913;51.492;10.368;2023-08-08T05:32:44;98045.00;;;12.39;82.94
75317;BME280;63913;51.492;10.368;2023-08-08T05:35:10;98039.03;;;12.44;82.64
75317;BME280;63913;51.492;10.368;2023-08-08T05:37:35;98039.03;;;12.44;82.91
75317;BME280;63913;51.492;10.368;2023-08-08T05:40:00;98049.31;;;12.38;82.78
75317;BME280;63913;51.492;10.368;2023-08-08T05:42:26;98055.31;;;12.39;82.92
75317;BME280;63913;51.492;10.368;2023-08-08T05:44:51;98054.41;;;12.31;83.36
75317;BME280;63913;51.492;10.368;2023-08-08T05:47:17;98050.97;;;12.33;83.87
75317;BME280;63913;51.492;10.368;2023-08-08T05:49:42;98056.13;;;12.33;83.97
75317;BME280;63913;51.492;10.368;2023-08-08T05:52:08;98049.28;;;12.37;83.72
75317;BME280;63913;51.492;10.368;2023-08-08T05:54:34;98045.03;;;12.42;84.10
75317;BME280;63913;51.492;10.368;2023-08-08T05:57:00;98061.38;;;12.44;83.60
75317;BME280;63913;51.492;10.368;2023-08-08T05:59:25;98049.38;;;12.49;84.00
75317;BME280;63913;51.492;10.368;2023-08-08T06:01:51;98043.41;;;12.53;84.27
75317;BME280;63913;51.492;10.368;2023-08-08T06:04:16;98039.97;;;12.54;83.99
75317;BME280;63913;51.492;10.368;2023-08-08T06:06:42;98036.56;;;12.59;83.85
75317;BME280;63913;51.492;10.368;2023-08-08T06:09:07;98042.66;;;12.69;83.52
75317;BME280;63913;51.492;10.368;2023-08-08T06:11:34;98043.53;;;12.76;83.46
75317;BME280;63913;51.492;10.368;2023-08-08T06:14:00;98039.28;;;12.82;83.54
75317;BME280;63913;51.492;10.368;2023-08-08T06:16:25;98032.44;;;12.90;83.18
75317;BME280;63913;51.492;10.368;2023-08-08T06:18:52;98041.97;;;12.96;83.30
75317;BME280;63913;51.492;10.368;2023-08-08T06:21:17;98036.78;;;12.99;82.29
75317;BME280;63913;51.492;10.368;2023-08-08T06:23:43;98055.75;;;13.07;81.37
75317;BME280;63913;51.492;10.368;2023-08-08T06:26:08;98063.50;;;13.03;82.13
75317;BME280;63913;51.492;10.368;2023-08-08T06:28:34;98060.06;;;13.04;82.67
75317;BME280;63913;51.492;10.368;2023-08-08T06:31:00;98066.91;;;13.02;82.47
75317;BME280;63913;51.492;10.368;2023-08-08T06:33:26;98061.72;;;12.94;83.79
75317;BME280;63913;51.492;10.368;2023-08-08T06:35:52;98071.16;;;12.90;84.68
75317;BME280;63913;51.492;10.368;2023-08-08T06:38:17;98075.34;;;12.75;84.37
75317;BME280;63913;51.492;10.368;2023-08-08T06:40:43;98065.03;;;12.72;85.34
75317;BME280;63913;51.492;10.368;2023-08-08T06:43:08;98070.22;;;12.78;84.63
75317;BME280;63913;51.492;10.368;2023-08-08T06:45:33;98066.75;;;12.76;85.03
75317;BME280;63913;51.492;10.368;2023-08-08T06:47:59;98073.63;;;12.75;85.32
75317;BME280;63913;51.492;10.368;2023-08-08T06:50:25;98065.88;;;12.75;85.11
75317;BME280;63913;51.492;10.368;2023-08-08T06:52:50;98076.22;;;12.75;85.06
75317;BME280;63913;51.492;10.368;2023-08-08T06:55:16;98065.88;;;12.75;85.39
75317;BME280;63913;51.492;10.368;2023-08-08T06:57:41;98063.31;;;12.77;85.26
75317;BME280;63913;51.492;10.368;2023-08-08T07:00:07;98062.41;;;12.67;85.33
75317;BME280;63913;51.492;10.368;2023-08-08T07:02:33;98072.72;;;12.64;86.70
75317;BME280;63913;51.492;10.368;2023-08-08T07:04:59;98064.97;;;12.63;85.99
75317;BME280;63913;51.492;10.368;2023-08-08T07:07:24;98067.50;;;12.56;86.60
75317;BME280;63913;51.492;10.368;2023-08-08T07:09:50;98071.78;;;12.56;87.47
75317;BME280;63913;51.492;10.368;2023-08-08T07:12:15;98075.16;;;12.50;86.61
75317;BME280;63913;51.492;10.368;2023-08-08T07:14:41;98078.63;;;12.51;87.99
75317;BME280;63913;51.492;10.368;2023-08-08T07:17:07;98080.41;;;12.56;87.31
75317;BME280;63913;51.492;10.368;2023-08-08T07:19:32;98070.00;;;12.49;86.81
75317;BME280;63913;51.492;10.368;2023-08-08T07:21:58;98067.41;;;12.46;88.62
75317;BME280;63913;51.492;10.368;2023-08-08T07:24:23;98072.59;;;12.47;87.63
75317;BME280;63913;51.492;10.368;2023-08-08T07:26:55;98076.91;;;12.48;88.13
75317;BME280;63913;51.492;10.368;2023-08-08T07:29:20;98060.59;;;12.52;88.18
75317;BME280;63913;51.492;10.368;2023-08-08T07:31:46;98059.72;;;12.53;88.95
75317;BME280;63913;51.492;10.368;2023-08-08T07:34:11;98067.50;;;12.56;88.25
75317;BME280;63913;51.492;10.368;2023-08-08T07:36:37;98062.34;;;12.59;89.31
75317;BME280;63913;51.492;10.368;2023-08-08T07:39:02;98062.34;;;12.58;89.49
75317;BME280;63913;51.492;10.368;2023-08-08T07:41:30;98074.44;;;12.68;89.99
75317;BME280;63913;51.492;10.368;2023-08-08T07:43:55;98062.47;;;12.76;90.09
75317;BME280;63913;51.492;10.368;2023-08-08T07:46:21;98070.28;;;12.87;89.49
75317;BME280;63913;51.492;10.368;2023-08-08T07:48:46;98069.47;;;12.95;89.67
75317;BME280;63913;51.492;10.368;2023-08-08T07:51:12;98066.91;;;13.00;88.28
75317;BME280;63913;51.492;10.368;2023-08-08T07:53:40;98064.34;;;13.03;88.16
75317;BME280;63913;51.492;10.368;2023-08-08T07:56:05;98054.94;;;13.13;87.86
75317;BME280;63913;51.492;10.368;2023-08-08T07:58:34;98052.41;;;13.17;88.52
75317;BME280;63913;51.492;10.368;2023-08-08T08:00:59;98050.75;;;13.28;86.09
75317;BME280;63913;51.492;10.368;2023-08-08T08:03:26;98047.34;;;13.37;86.73
75317;BME280;63913;51.492;10.368;2023-08-08T08:05:52;98046.50;;;13.46;86.75
75317;BME280;63913;51.492;10.368;2023-08-08T08:08:18;98054.28;;;13.53;86.09
75317;BME280;63913;51.492;10.368;2023-08-08T08:10:43;98047.41;;;13.63;86.70
75317;BME280;63913;51.492;10.368;2023-08-08T08:13:08;98050.00;;;13.66;84.65
75317;BME280;63913;51.492;10.368;2023-08-08T08:15:35;98068.09;;;13.67;83.15
75317;BME280;63913;51.492;10.368;2023-08-08T08:18:01;98056.06;;;13.75;82.03
75317;BME280;63913;51.492;10.368;2023-08-08T08:20:26;98046.56;;;13.73;82.17
75317;BME280;63913;51.492;10.368;2023-08-08T08:22:52;98049.19;;;13.81;82.63
75317;BME280;63913;51.492;10.368;2023-08-08T08:25:17;98050.91;;;13.80;81.88
75317;BME280;63913;51.492;10.368;2023-08-08T08:27:42;98049.19;;;13.81;81.80
75317;BME280;63913;51.492;10.368;2023-08-08T08:30:08;98043.13;;;13.79;81.38
75317;BME280;63913;51.492;10.368;2023-08-08T08:32:39;98050.91;;;13.82;82.50
75317;BME280;63913;51.492;10.368;2023-08-08T08:35:06;98050.91;;;13.85;82.20
75317;BME280;63913;51.492;10.368;2023-08-08T08:37:32;98051.75;;;13.81;82.11
75317;BME280;63913;51.492;10.368;2023-08-08T08:39:58;98046.63;;;13.85;82.84
75317;BME280;63913;51.492;10.368;2023-08-08T08:42:23;98056.09;;;13.95;82.51
75317;BME280;63913;51.492;10.368;2023-08-08T08:44:49;98050.94;;;13.97;82.22
75317;BME280;63913;51.492;10.368;2023-08-08T08:47:17;98046.63;;;13.99;81.64
75317;BME280;63913;51.492;10.368;2023-08-08T08:49:44;98041.47;;;14.09;81.39
75317;BME280;63913;51.492;10.368;2023-08-08T08:52:11;98056.13;;;14.12;82.14
75317;BME280;63913;51.492;10.368;2023-08-08T08:54:37;98046.66;;;14.23;81.37
75317;BME280;63913;51.492;10.368;2023-08-08T08:57:02;98042.34;;;14.27;81.61
75317;BME280;63913;51.492;10.368;2023-08-08T08:59:28;98037.19;;;14.25;81.67
75317;BME280;63913;51.492;10.368;2023-08-08T09:01:55;98044.06;;;14.17;81.56
75317;BME280;63913;51.492;10.368;2023-08-08T09:04:21;98041.50;;;14.17;81.02
75317;BME280;63913;51.492;10.368;2023-08-08T09:06:48;98034.59;;;14.16;81.64
75317;BME280;63913;51.492;10.368;2023-08-08T09:09:14;98046.63;;;14.11;82.38
75317;BME280;63913;51.492;10.368;2023-08-08T09:11:47;98044.06;;;14.08;82.33
75317;BME280;63913;51.492;10.368;2023-08-08T09:14:22;98055.25;;;14.14;82.15
75317;BME280;63913;51.492;10.368;2023-08-08T09:16:49;98039.75;;;14.19;82.05
75317;BME280;63913;51.492;10.368;2023-08-08T09:19:15;98044.94;;;14.27;82.14
75317;BME280;63913;51.492;10.368;2023-08-08T09:21:40;98048.38;;;14.33;81.31
75317;BME280;63913;51.492;10.368;2023-08-08T09:24:06;98043.25;;;14.39;82.20
75317;BME280;63913;51.492;10.368;2023-08-08T09:26:32;98036.31;;;14.44;81.14
75317;BME280;63913;51.492;10.368;2023-08-08T09:28:58;98030.31;;;14.41;80.55
75317;BME280;63913;51.492;10.368;2023-08-08T09:31:25;98032.88;;;14.47;80.70
75317;BME280;63913;51.492;10.368;2023-08-08T09:33:51;98032.00;;;14.54;81.50
75317;BME280;63913;51.492;10.368;2023-08-08T09:36:17;98036.31;;;14.60;79.90
75317;BME280;63913;51.492;10.368;2023-08-08T09:38:45;98032.00;;;14.60;79.30
75317;BME280;63913;51.492;10.368;2023-08-08T09:41:11;98019.03;;;14.78;80.45
75317;BME280;63913;51.492;10.368;2023-08-08T09:43:37;98012.97;;;14.85;79.07
75317;BME280;63913;51.492;10.368;2023-08-08T09:46:02;98008.63;;;14.97;79.02
75317;BME280;63913;51.492;10.368;2023-08-08T09:48:32;98004.28;;;15.12;76.85
75317;BME280;63913;51.492;10.368;2023-08-08T09:51:02;98003.38;;;15.21;77.45
75317;BME280;63913;51.492;10.368;2023-08-08T09:53:27;98009.38;;;15.31;75.96
75317;BME280;63913;51.492;10.368;2023-08-08T09:55:54;97999.81;;;15.45;76.28
75317;BME280;63913;51.492;10.368;2023-08-08T09:58:21;97995.50;;;15.45;75.58
75317;BME280;63913;51.492;10.368;2023-08-08T10:00:49;97995.50;;;15.42;74.78
75317;BME280;63913;51.492;10.368;2023-08-08T10:03:16;97979.97;;;15.39;76.00
75317;BME280;63913;51.492;10.368;2023-08-08T10:05:42;97991.22;;;15.40;76.13
75317;BME280;63913;51.492;10.368;2023-08-08T10:08:08;97998.16;;;15.32;74.06
75317;BME280;63913;51.492;10.368;2023-08-08T10:10:34;97992.13;;;15.30;74.38
75317;BME280;63913;51.492;10.368;2023-08-08T10:12:59;97986.97;;;15.23;74.85
75317;BME280;63913;51.492;10.368;2023-08-08T10:15:26;98002.50;;;15.20;74.74
75317;BME280;63913;51.492;10.368;2023-08-08T10:17:55;97997.41;;;15.04;75.09
75317;BME280;63913;51.492;10.368;2023-08-08T10:20:21;98005.16;;;15.04;76.13
75317;BME280;63913;51.492;10.368;2023-08-08T10:22:47;97993.88;;;15.17;76.50
75317;BME280;63913;51.492;10.368;2023-08-08T10:25:26;98004.16;;;15.38;76.32
75317;BME280;63913;51.492;10.368;2023-08-08T10:28:25;98004.97;;;15.46;75.08
75317;BME280;63913;51.492;10.368;2023-08-08T10:30:57;97999.81;;;15.42;74.61
75317;BME280;63913;51.492;10.368;2023-08-08T10:33:25;97993.69;;;15.61;75.68
75317;BME280;63913;51.492;10.368;2023-08-08T10:36:01;97995.28;;;15.82;74.55
75317;BME280;63913;51.492;10.368;2023-08-08T10:38:45;97976.94;;;16.06;71.88
75317;BME280;63913;51.492;10.368;2023-08-08T10:41:17;97990.75;;;16.11;71.93
75317;BME280;63913;51.492;10.368;2023-08-08T10:43:54;97980.25;;;16.28;71.12
75317;BME280;63913;51.492;10.368;2023-08-08T10:46:40;97978.22;;;16.60;67.13
75317;BME280;63913;51.492;10.368;2023-08-08T10:49:06;97968.41;;;16.90;67.64
75317;BME280;63913;51.492;10.368;2023-08-08T10:51:40;97988.00;;;17.18;63.67
75317;BME280;63913;51.492;10.368;2023-08-08T10:56:54;97979.44;;;17.07;63.72
75317;BME280;63913;51.492;10.368;2023-08-08T10:59:25;97969.03;;;17.10;62.60
75317;BME280;63913;51.492;10.368;2023-08-08T11:01:51;97965.56;;;17.09;63.25
75317;BME280;63913;51.492;10.368;2023-08-08T11:04:22;97961.97;;;17.20;63.56
75317;BME280;63913;51.492;10.368;2023-08-08T11:06:49;97949.50;;;17.44;61.58
75317;BME280;63913;51.492;10.368;2023-08-08T11:09:16;97951.50;;;17.26;60.71
75317;BME280;63913;51.492;10.368;2023-08-08T11:11:43;97953.59;;;16.95;62.04
75317;BME280;63913;51.492;10.368;2023-08-08T11:16:35;97955.72;;;16.59;64.13
75317;BME280;63913;51.492;10.368;2023-08-08T11:19:01;97954.09;;;16.46;59.91
75317;BME280;63913;51.492;10.368;2023-08-08T11:21:26;97951.72;;;16.28;60.96
75317;BME280;63913;51.492;10.368;2023-08-08T11:23:52;97954.31;;;16.23;61.81
75317;BME280;63913;51.492;10.368;2023-08-08T11:26:18;97958.72;;;16.18;61.42
75317;BME280;63913;51.492;10.368;2023-08-08T11:28:51;97953.44;;;16.27;62.09
75317;BME280;63913;51.492;10.368;2023-08-08T11:31:18;97951.47;;;16.54;60.76
75317;BME280;63913;51.492;10.368;2023-08-08T11:33:47;97950.56;;;16.56;61.18
75317;BME280;63913;51.492;10.368;2023-08-08T11:36:14;97942.81;;;16.52;59.97
75317;BME280;63913;51.492;10.368;2023-08-08T11:38:40;97950.72;;;16.41;59.88
75317;BME280;63913;51.492;10.368;2023-08-08T11:41:06;97946.44;;;16.35;60.05
75317;BME280;63913;51.492;10.368;2023-08-08T11:43:32;97959.44;;;16.34;60.22
75317;BME280;63913;51.492;10.368;2023-08-08T11:46:02;97960.31;;;16.30;60.86
75317;BME280;63913;51.492;10.368;2023-08-08T11:48:32;97956.09;;;16.21;58.89
75317;BME280;63913;51.492;10.368;2023-08-08T11:50:58;97950.94;;;16.18;59.69
75317;BME280;63913;51.492;10.368;2023-08-08T11:53:23;97957.91;;;16.13;60.54
75317;BME280;63913;51.492;10.368;2023-08-08T11:55:49;97951.88;;;16.08;61.54
75317;BME280;63913;51.492;10.368;2023-08-08T11:58:15;97949.25;;;16.13;59.82
75317;BME280;63913;51.492;10.368;2023-08-08T12:00:42;97974.28;;;16.15;59.37
75317;BME280;63913;51.492;10.368;2023-08-08T12:03:08;97968.28;;;16.13;59.46
75317;BME280;63913;51.492;10.368;2023-08-08T12:05:37;97961.38;;;16.11;58.72
75317;BME280;63913;51.492;10.368;2023-08-08T12:08:05;97970.03;;;16.10;59.89
75317;BME280;63913;51.492;10.368;2023-08-08T12:10:31;97996.00;;;16.03;60.34
75317;BME280;63913;51.492;10.368;2023-08-08T12:12:57;97988.31;;;15.91;61.19
75317;BME280;63913;51.492;10.368;2023-08-08T12:15:29;97997.94;;;15.74;63.66
75317;BME280;63913;51.492;10.368;2023-08-08T12:17:54;98009.25;;;15.62;65.93
75317;BME280;63913;51.492;10.368;2023-08-08T12:20:20;98003.25;;;15.42;68.43
75317;BME280;63913;51.492;10.368;2023-08-08T12:22:45;98005.09;;;15.20;72.41
75317;BME280;63913;51.492;10.368;2023-08-08T12:25:12;97997.41;;;15.05;74.10
75317;BME280;63913;51.492;10.368;2023-08-08T12:27:38;97995.69;;;14.95;74.84
75317;BME280;63913;51.492;10.368;2023-08-08T12:30:05;98002.63;;;14.84;76.16
75317;BME280;63913;51.492;10.368;2023-08-08T12:32:31;97994.03;;;14.74;76.90
75317;BME280;63913;51.492;10.368;2023-08-08T12:34:58;97990.56;;;14.78;76.95
75317;BME280;63913;51.492;10.368;2023-08-08T12:37:23;97985.41;;;14.83;76.28
75317;BME280;63913;51.492;10.368;2023-08-08T12:39:49;97994.00;;;14.85;77.55
75317;BME280;63913;51.492;10.368;2023-08-08T12:42:15;98000.91;;;14.89;77.78
75317;BME280;63913;51.492;10.368;2023-08-08T12:44:41;97997.44;;;14.92;77.36
75317;BME280;63913;51.492;10.368;2023-08-08T12:47:06;98006.81;;;15.18;77.85
75317;BME280;63913;51.492;10.368;2023-08-08T12:49:32;98008.50;;;15.32;77.92
75317;BME280;63913;51.492;10.368;2023-08-08T12:51:57;98016.25;;;15.38;76.13